Time;durP1;ratioP1;P1;durP2;ratioP2;P2;SDS_P1;SDS_P2;PMS_P1;PMS_P2;Temp;Humidity;BMP_temperature;BMP_pressure;BME280_temperature;BME280_humidity;BME280_pressure;Samples;Min_cycle;Max_cycle;Signal;HPM_P1;HPM_P2
2022/11/17 00:01:23;;;;;;;11.33;6.13;;;;;;;;;;5025298;28;20227;-33
2022/11/17 00:03:52;;;;;;;5.70;4.10;;;;;;;;;;5029346;28;20229;-33
2022/11/17 00:06:20;;;;;;;7.37;4.60;;;;;;;;;;5029158;28;20297;-33
2022/11/17 00:08:47;;;;;;;6.73;4.00;;;;;;;;;;5026220;28;20221;-31
2022/11/17 00:11:14;;;;;;;5.90;3.87;;;;;;;;;;5026784;28;20218;-33
2022/11/17 00:16:26;;;;;;;8.90;5.00;;;;;;;;;;5025676;28;20218;-33
2022/11/17 00:21:39;;;;;;;9.30;3.90;;;;;;;;;;5029268;28;20229;-33
2022/11/17 00:24:07;;;;;;;5.77;3.97;;;;;;;;;;5020369;28;20214;-33
2022/11/17 00:27:00;;;;;;;9.63;4.13;;;;;;;;;;5026872;28;20206;-33
2022/11/17 00:29:22;;;;;;;6.70;4.60;;;;;;;;;;5026414;28;20218;-35
2022/11/17 00:34:36;;;;;;;9.23;4.80;;;;;;;;;;5030724;28;20338;-36
2022/11/17 00:37:03;;;;;;;5.93;4.03;;;;;;;;;;5025888;28;20217;-35
2022/11/17 00:39:30;;;;;;;7.20;3.87;;;;;;;;;;5024335;28;20245;-33
2022/11/17 00:41:57;;;;;;;6.77;4.13;;;;;;;;;;5030056;28;20218;-32
2022/11/17 00:44:24;;;;;;;7.27;4.17;;;;;;;;;;5024378;28;20203;-31
2022/11/17 00:46:51;;;;;;;7.57;3.93;;;;;;;;;;5031459;28;20209;-34
2022/11/17 00:49:20;;;;;;;5.90;3.70;;;;;;;;;;5031679;28;20207;-38
2022/11/17 00:51:48;;;;;;;4.73;3.40;;;;;;;;;;5032844;28;20248;-34
2022/11/17 00:54:16;;;;;;;4.93;3.60;;;;;;;;;;5024141;28;20281;-32
2022/11/17 00:56:43;;;;;;;4.63;3.60;;;;;;;;;;5028352;28;20234;-35
2022/11/17 00:59:10;;;;;;;4.07;3.30;;;;;;;;;;5024151;28;20200;-31
2022/11/17 01:01:38;;;;;;;5.50;3.80;;;;;;;;;;5029574;28;20229;-30
2022/11/17 01:04:05;;;;;;;3.43;3.00;;;;;;;;;;5032278;28;20222;-37
2022/11/17 01:06:33;;;;;;;5.43;3.83;;;;;;;;;;5029202;28;20214;-36
2022/11/17 01:09:02;;;;;;;6.93;4.10;;;;;;;;;;5024720;28;20233;-34
2022/11/17 01:11:29;;;;;;;5.47;3.67;;;;;;;;;;5030773;28;20225;-33
2022/11/17 01:13:58;;;;;;;3.70;3.40;;;;;;;;;;5024042;28;20213;-34
2022/11/17 01:16:25;;;;;;;4.93;3.20;;;;;;;;;;5029759;28;20228;-36
2022/11/17 01:18:52;;;;;;;3.73;3.10;;;;;;;;;;5033122;28;20210;-30
2022/11/17 01:21:21;;;;;;;4.70;3.37;;;;;;;;;;5032208;28;20218;-33
2022/11/17 01:23:49;;;;;;;5.07;3.63;;;;;;;;;;5029185;28;20227;-34
2022/11/17 01:26:19;;;;;;;7.00;3.47;;;;;;;;;;5031274;28;20211;-35
2022/11/17 01:28:46;;;;;;;5.53;3.93;;;;;;;;;;5029218;28;20216;-34
2022/11/17 01:31:15;;;;;;;5.53;3.60;;;;;;;;;;5031638;28;20223;-34
2022/11/17 01:33:42;;;;;;;4.07;3.30;;;;;;;;;;5032596;28;20213;-32
2022/11/17 01:36:12;;;;;;;5.10;3.17;;;;;;;;;;5025706;28;20217;-34
2022/11/17 01:38:39;;;;;;;3.97;3.53;;;;;;;;;;5021542;28;20210;-30
2022/11/17 01:41:07;;;;;;;3.60;3.10;;;;;;;;;;5039763;28;20225;-33
2022/11/17 01:43:39;;;;;;;4.77;3.63;;;;;;;;;;5035620;28;20798;-33
2022/11/17 01:46:09;;;;;;;3.87;3.47;;;;;;;;;;5033603;28;20202;-32
2022/11/17 01:48:36;;;;;;;4.33;3.17;;;;;;;;;;5033350;28;20202;-35
2022/11/17 01:51:04;;;;;;;4.13;3.27;;;;;;;;;;5032388;28;20226;-34
2022/11/17 01:53:34;;;;;;;3.40;2.93;;;;;;;;;;5029308;28;20203;-33
2022/11/17 01:56:04;;;;;;;5.00;3.73;;;;;;;;;;5029635;28;20209;-36
2022/11/17 01:58:33;;;;;;;4.73;3.03;;;;;;;;;;5026041;28;20206;-30
2022/11/17 02:01:02;;;;;;;6.57;3.60;;;;;;;;;;5024596;28;20237;-34
2022/11/17 02:03:32;;;;;;;5.53;4.03;;;;;;;;;;5029365;28;20229;-32
2022/11/17 02:06:02;;;;;;;7.13;3.73;;;;;;;;;;5034381;28;20234;-30
2022/11/17 02:08:31;;;;;;;4.40;3.67;;;;;;;;;;5031452;28;20216;-35
2022/11/17 02:10:59;;;;;;;4.77;3.23;;;;;;;;;;5028765;28;20607;-32
2022/11/17 02:13:27;;;;;;;3.57;3.20;;;;;;;;;;5033429;28;20213;-32
2022/11/17 02:15:54;;;;;;;3.70;3.40;;;;;;;;;;5032238;28;20222;-34
2022/11/17 02:18:22;;;;;;;6.87;3.37;;;;;;;;;;5037430;28;20280;-32
2022/11/17 02:20:52;;;;;;;5.17;3.50;;;;;;;;;;5031426;28;20301;-33
2022/11/17 02:23:31;;;;;;;4.00;3.60;;;;;;;;;;5022857;28;20230;-32
2022/11/17 02:26:10;;;;;;;4.87;3.63;;;;;;;;;;5022339;28;20257;-33
2022/11/17 02:28:42;;;;;;;4.67;3.53;;;;;;;;;;5025179;28;20233;-33
2022/11/17 02:31:15;;;;;;;4.20;3.70;;;;;;;;;;5032950;28;20226;-36
2022/11/17 02:33:48;;;;;;;5.27;3.30;;;;;;;;;;5038607;28;20199;-34
2022/11/17 02:36:18;;;;;;;7.00;3.37;;;;;;;;;;5030424;28;20212;-35
2022/11/17 02:38:50;;;;;;;6.03;4.07;;;;;;;;;;5022270;28;20211;-32
2022/11/17 02:41:21;;;;;;;3.63;3.33;;;;;;;;;;5029435;28;20236;-36
2022/11/17 02:44:04;;;;;;;5.37;3.20;;;;;;;;;;5030598;28;20230;-31
2022/11/17 02:46:35;;;;;;;3.97;3.07;;;;;;;;;;5027240;28;20206;-35
2022/11/17 02:49:05;;;;;;;3.30;2.90;;;;;;;;;;5038420;28;20226;-33
2022/11/17 02:51:34;;;;;;;6.70;3.60;;;;;;;;;;5024732;28;20229;-34
2022/11/17 02:54:02;;;;;;;5.37;3.93;;;;;;;;;;5032761;28;20209;-35
2022/11/17 02:56:29;;;;;;;7.00;3.40;;;;;;;;;;5033880;28;20227;-34
2022/11/17 02:59:00;;;;;;;4.53;3.30;;;;;;;;;;5013631;28;20207;-32
2022/11/17 03:01:36;;;;;;;6.33;3.77;;;;;;;;;;5022693;28;20235;-32
2022/11/17 03:04:13;;;;;;;4.50;3.23;;;;;;;;;;5022859;28;20217;-33
2022/11/17 03:06:46;;;;;;;4.37;3.07;;;;;;;;;;5023358;28;20207;-34
2022/11/17 03:09:16;;;;;;;4.83;3.20;;;;;;;;;;5032258;28;20658;-36
2022/11/17 03:11:45;;;;;;;4.50;3.10;;;;;;;;;;5050483;28;20316;-32
2022/11/17 03:14:18;;;;;;;3.50;3.00;;;;;;;;;;5028143;28;20200;-32
2022/11/17 03:16:50;;;;;;;7.93;3.43;;;;;;;;;;5043234;28;20202;-33
2022/11/17 03:19:19;;;;;;;3.97;3.47;;;;;;;;;;5048812;28;20224;-33
2022/11/17 03:21:48;;;;;;;5.87;3.67;;;;;;;;;;5030437;28;20223;-37
2022/11/17 03:24:17;;;;;;;3.93;3.47;;;;;;;;;;5019973;28;20222;-34
2022/11/17 03:26:46;;;;;;;5.23;3.27;;;;;;;;;;5049185;28;20212;-31
2022/11/17 03:29:15;;;;;;;3.33;3.00;;;;;;;;;;5023404;28;20204;-36
2022/11/17 03:31:46;;;;;;;3.40;2.90;;;;;;;;;;5033174;28;20230;-33
2022/11/17 03:34:16;;;;;;;5.10;2.87;;;;;;;;;;5037708;28;20230;-37
2022/11/17 03:36:46;;;;;;;3.03;2.67;;;;;;;;;;5029805;28;20219;-35
2022/11/17 03:39:16;;;;;;;4.57;2.97;;;;;;;;;;5028225;28;20199;-35
2022/11/17 03:41:46;;;;;;;6.33;3.50;;;;;;;;;;5036506;28;20234;-30
2022/11/17 03:44:15;;;;;;;3.30;3.00;;;;;;;;;;5024691;28;20221;-33
2022/11/17 03:46:44;;;;;;;3.13;2.90;;;;;;;;;;5031589;28;20324;-30
2022/11/17 03:49:15;;;;;;;4.07;3.40;;;;;;;;;;5029573;28;20289;-35
2022/11/17 03:51:42;;;;;;;3.77;3.20;;;;;;;;;;5029620;28;20222;-31
2022/11/17 03:54:10;;;;;;;4.53;2.97;;;;;;;;;;5023266;28;20199;-33
2022/11/17 03:56:42;;;;;;;2.87;2.63;;;;;;;;;;5030635;28;20209;-32
2022/11/17 03:59:12;;;;;;;4.00;3.10;;;;;;;;;;5018486;28;20226;-33
2022/11/17 04:01:39;;;;;;;4.20;2.87;;;;;;;;;;5026201;28;20230;-34
2022/11/17 04:04:08;;;;;;;3.00;2.73;;;;;;;;;;5040196;28;20225;-32
2022/11/17 04:06:35;;;;;;;2.67;2.47;;;;;;;;;;5039025;28;20207;-33
2022/11/17 04:09:02;;;;;;;3.37;3.07;;;;;;;;;;5029779;28;20206;-34
2022/11/17 04:17:01;;;;;;;3.87;2.60;;;;;;;;;;5029003;28;20205;-31
2022/11/17 04:19:30;;;;;;;5.33;3.17;;;;;;;;;;5037411;28;20578;-36
2022/11/17 04:21:57;;;;;;;5.43;2.50;;;;;;;;;;5025968;28;20226;-34
2022/11/17 04:24:24;;;;;;;2.57;2.37;;;;;;;;;;5030368;28;20230;-30
2022/11/17 04:29:36;;;;;;;3.23;2.60;;;;;;;;;;5026022;28;20206;-32
2022/11/17 04:32:13;;;;;;;3.93;1.97;;;;;;;;;;5034698;28;20290;-36
2022/11/17 04:34:42;;;;;;;2.23;1.60;;;;;;;;;;5032025;28;20202;-35
2022/11/17 04:37:16;;;;;;;1.50;1.40;;;;;;;;;;5029691;28;20290;-32
2022/11/17 04:39:44;;;;;;;1.70;1.60;;;;;;;;;;5020423;28;20230;-35
2022/11/17 04:42:10;;;;;;;1.67;1.43;;;;;;;;;;5030945;28;20207;-31
2022/11/17 04:44:37;;;;;;;3.53;1.77;;;;;;;;;;5022543;28;20214;-33
2022/11/17 04:47:05;;;;;;;1.77;1.67;;;;;;;;;;5030028;28;20212;-35
2022/11/17 04:49:33;;;;;;;1.53;1.40;;;;;;;;;;5030163;28;20206;-36
2022/11/17 04:52:01;;;;;;;1.40;1.20;;;;;;;;;;5022058;28;20222;-30
2022/11/17 04:54:28;;;;;;;2.50;1.77;;;;;;;;;;5026306;28;20205;-33
2022/11/17 04:56:56;;;;;;;2.13;1.50;;;;;;;;;;5031991;28;20207;-36
2022/11/17 04:59:24;;;;;;;1.60;1.37;;;;;;;;;;5026147;28;20210;-34
2022/11/17 05:01:51;;;;;;;2.10;1.50;;;;;;;;;;5029958;28;20236;-34
2022/11/17 05:04:54;;;;;;;1.50;1.30;;;;;;;;;;5031719;28;20214;-31
2022/11/17 05:07:09;;;;;;;1.20;1.10;;;;;;;;;;5029371;28;20206;-32
2022/11/17 05:09:36;;;;;;;1.67;1.20;;;;;;;;;;5009960;28;20213;-35
2022/11/17 05:14:51;;;;;;;4.07;2.17;;;;;;;;;;5025745;28;20213;-33
2022/11/17 05:17:17;;;;;;;2.80;2.60;;;;;;;;;;5032030;28;20203;-35
2022/11/17 05:25:08;;;;;;;5.57;1.90;;;;;;;;;;5064710;28;20228;-32
2022/11/17 05:27:35;;;;;;;4.57;2.40;;;;;;;;;;5069292;28;20197;-30
2022/11/17 05:30:04;;;;;;;3.00;2.27;;;;;;;;;;5063624;28;20320;-33
2022/11/17 05:32:31;;;;;;;2.67;2.47;;;;;;;;;;5068797;28;20289;-33
2022/11/17 05:34:59;;;;;;;2.50;2.30;;;;;;;;;;5068435;28;20273;-31
2022/11/17 05:37:27;;;;;;;4.60;2.90;;;;;;;;;;5067142;28;20246;-31
2022/11/17 05:39:54;;;;;;;2.43;1.90;;;;;;;;;;5056744;28;20206;-31
2022/11/17 05:42:23;;;;;;;1.87;1.77;;;;;;;;;;5069644;28;20212;-32
2022/11/17 05:44:50;;;;;;;3.37;2.00;;;;;;;;;;5060299;28;20296;-34
2022/11/17 05:47:17;;;;;;;2.20;1.90;;;;;;;;;;5071509;28;20193;-30
2022/11/17 05:49:44;;;;;;;1.97;1.77;;;;;;;;;;5071934;28;20220;-28
2022/11/17 05:52:11;;;;;;;2.47;2.20;;;;;;;;;;5069739;28;20197;-34
2022/11/17 05:54:40;;;;;;;4.47;2.33;;;;;;;;;;5066441;28;20200;-32
2022/11/17 05:57:08;;;;;;;2.80;2.30;;;;;;;;;;5065756;28;20218;-31
2022/11/17 05:59:39;;;;;;;2.33;2.13;;;;;;;;;;5060341;28;20204;-31
2022/11/17 06:02:09;;;;;;;2.60;2.40;;;;;;;;;;5069211;28;20225;-33
2022/11/17 06:04:36;;;;;;;2.10;1.90;;;;;;;;;;5072441;28;20217;-33
2022/11/17 06:07:03;;;;;;;3.77;2.17;;;;;;;;;;5072395;28;20207;-31
2022/11/17 06:09:32;;;;;;;2.67;1.90;;;;;;;;;;5074745;28;20200;-33
2022/11/17 06:12:01;;;;;;;3.07;2.07;;;;;;;;;;5075223;28;20308;-34
2022/11/17 06:14:28;;;;;;;2.57;2.37;;;;;;;;;;5071231;28;20284;-31
2022/11/17 06:16:58;;;;;;;2.80;2.27;;;;;;;;;;5071639;28;20239;-32
2022/11/17 06:19:28;;;;;;;3.27;2.40;;;;;;;;;;5074480;28;20288;-33
2022/11/17 06:21:55;;;;;;;2.47;2.27;;;;;;;;;;5060173;28;20229;-34
2022/11/17 06:24:22;;;;;;;4.17;2.37;;;;;;;;;;5070390;28;20221;-31
2022/11/17 06:26:49;;;;;;;2.50;2.30;;;;;;;;;;5066741;28;20292;-32
2022/11/17 06:29:18;;;;;;;5.30;2.80;;;;;;;;;;5064312;28;20229;-33
2022/11/17 06:31:45;;;;;;;5.73;2.43;;;;;;;;;;5069441;28;20235;-31
2022/11/17 06:34:13;;;;;;;4.97;2.27;;;;;;;;;;5071859;28;20215;-32
2022/11/17 06:36:40;;;;;;;3.37;1.90;;;;;;;;;;5076098;28;20701;-34
2022/11/17 06:39:07;;;;;;;3.67;2.20;;;;;;;;;;5055834;28;20201;-33
2022/11/17 06:41:34;;;;;;;2.33;1.70;;;;;;;;;;5071755;28;20225;-32
2022/11/17 06:44:01;;;;;;;2.93;1.80;;;;;;;;;;5065725;28;20232;-31
2022/11/17 06:46:36;;;;;;;2.43;2.00;;;;;;;;;;5067692;28;20212;-34
2022/11/17 06:49:04;;;;;;;3.00;2.00;;;;;;;;;;5072366;28;20262;-32
2022/11/17 06:51:31;;;;;;;3.37;2.20;;;;;;;;;;5071046;28;20229;-34
2022/11/17 06:53:58;;;;;;;2.30;1.60;;;;;;;;;;5068804;28;20200;-34
2022/11/17 06:56:26;;;;;;;2.63;2.03;;;;;;;;;;5067720;28;20205;-34
2022/11/17 06:58:54;;;;;;;2.77;1.97;;;;;;;;;;5063989;28;20300;-33
2022/11/17 07:01:22;;;;;;;3.80;2.03;;;;;;;;;;5064766;28;20224;-34
2022/11/17 07:03:50;;;;;;;2.03;1.83;;;;;;;;;;5072675;28;20288;-30
2022/11/17 07:06:18;;;;;;;1.97;1.77;;;;;;;;;;5073590;28;20201;-30
2022/11/17 07:08:46;;;;;;;3.30;2.30;;;;;;;;;;5067933;28;20206;-32
2022/11/17 07:11:15;;;;;;;2.30;1.80;;;;;;;;;;5072743;28;20221;-32
2022/11/17 07:13:42;;;;;;;1.97;1.73;;;;;;;;;;5069651;28;20201;-33
2022/11/17 07:16:10;;;;;;;3.77;2.00;;;;;;;;;;5071236;28;20212;-30
2022/11/17 07:18:40;;;;;;;2.90;1.80;;;;;;;;;;5055289;28;20213;-30
2022/11/17 07:21:09;;;;;;;2.00;1.80;;;;;;;;;;5072063;28;20239;-30
2022/11/17 07:23:37;;;;;;;2.77;1.40;;;;;;;;;;5072667;28;20205;-31
2022/11/17 07:26:05;;;;;;;3.20;1.73;;;;;;;;;;5064541;28;20201;-29
2022/11/17 07:28:33;;;;;;;3.07;1.80;;;;;;;;;;5068255;28;20202;-33
2022/11/17 07:31:02;;;;;;;2.83;1.90;;;;;;;;;;5065604;28;20220;-30
2022/11/17 07:33:29;;;;;;;1.87;1.70;;;;;;;;;;5072010;28;20197;-31
2022/11/17 07:35:56;;;;;;;1.77;1.53;;;;;;;;;;5071989;28;20201;-33
2022/11/17 07:38:25;;;;;;;5.13;1.63;;;;;;;;;;5064222;28;20198;-30
2022/11/17 07:40:52;;;;;;;2.23;1.90;;;;;;;;;;5070819;28;20233;-30
2022/11/17 07:43:19;;;;;;;3.40;2.40;;;;;;;;;;5069246;28;20208;-33
2022/11/17 07:45:46;;;;;;;4.27;2.47;;;;;;;;;;5058492;28;20316;-30
2022/11/17 07:48:13;;;;;;;3.37;2.47;;;;;;;;;;5072275;28;20213;-31
2022/11/17 07:50:41;;;;;;;4.23;2.90;;;;;;;;;;5072468;28;20737;-31
2022/11/17 07:53:08;;;;;;;3.80;2.43;;;;;;;;;;5069717;28;20347;-34
2022/11/17 07:55:36;;;;;;;2.63;2.00;;;;;;;;;;5067349;28;20220;-31
2022/11/17 07:58:03;;;;;;;3.83;2.70;;;;;;;;;;5072161;28;20312;-28
2022/11/17 08:00:32;;;;;;;3.03;2.50;;;;;;;;;;5067007;28;20311;-32
2022/11/17 08:03:02;;;;;;;3.60;2.40;;;;;;;;;;5063798;28;20201;-33
2022/11/17 08:05:30;;;;;;;4.27;2.13;;;;;;;;;;5071906;28;20225;-30
2022/11/17 08:07:58;;;;;;;3.50;2.40;;;;;;;;;;5074600;28;20588;-32
2022/11/17 08:10:27;;;;;;;2.57;2.13;;;;;;;;;;5060040;28;20285;-30
2022/11/17 08:12:55;;;;;;;3.33;1.80;;;;;;;;;;5070899;28;20205;-30
2022/11/17 08:15:22;;;;;;;2.87;1.33;;;;;;;;;;5062874;28;20265;-33
2022/11/17 08:17:52;;;;;;;2.87;1.53;;;;;;;;;;5070838;28;20256;-33
2022/11/17 08:20:19;;;;;;;2.40;1.13;;;;;;;;;;5071930;28;20229;-34
2022/11/17 08:22:47;;;;;;;2.00;0.97;;;;;;;;;;5072418;28;20193;-32
2022/11/17 08:25:14;;;;;;;1.90;1.10;;;;;;;;;;5059217;28;20221;-33
2022/11/17 08:27:41;;;;;;;2.37;1.33;;;;;;;;;;5070283;28;20207;-33
2022/11/17 08:30:10;;;;;;;1.50;1.10;;;;;;;;;;5064120;28;20231;-30
2022/11/17 08:32:37;;;;;;;4.83;2.03;;;;;;;;;;5071337;28;20197;-34
2022/11/17 08:35:05;;;;;;;3.10;1.70;;;;;;;;;;5080530;28;20196;-31
2022/11/17 08:37:32;;;;;;;2.10;1.50;;;;;;;;;;5072669;28;20239;-36
2022/11/17 08:40:00;;;;;;;6.60;1.37;;;;;;;;;;5068977;28;20208;-32
2022/11/17 08:42:27;;;;;;;4.03;0.90;;;;;;;;;;5064713;28;20209;-33
2022/11/17 08:44:54;;;;;;;0.63;0.57;;;;;;;;;;5061693;28;20330;-31
2022/11/17 08:47:22;;;;;;;2.53;0.60;;;;;;;;;;5068482;28;20205;-32
2022/11/17 08:49:49;;;;;;;1.00;0.80;;;;;;;;;;5071828;28;20201;-33
2022/11/17 08:52:18;;;;;;;0.70;0.50;;;;;;;;;;5070335;28;20212;-33
2022/11/17 08:54:45;;;;;;;3.10;0.63;;;;;;;;;;5059732;28;20202;-32
2022/11/17 08:57:12;;;;;;;0.67;0.40;;;;;;;;;;5071624;28;20482;-31
2022/11/17 08:59:39;;;;;;;1.70;0.50;;;;;;;;;;5067514;28;20210;-30
2022/11/17 09:02:07;;;;;;;0.63;0.50;;;;;;;;;;5071416;28;20226;-30
2022/11/17 09:04:35;;;;;;;2.20;0.60;;;;;;;;;;5081169;28;20232;-32
2022/11/17 09:07:02;;;;;;;0.87;0.50;;;;;;;;;;5083297;28;20201;-30
2022/11/17 09:09:30;;;;;;;3.77;1.10;;;;;;;;;;5068765;28;20206;-34
2022/11/17 09:11:57;;;;;;;2.43;0.60;;;;;;;;;;5072317;28;20221;-34
2022/11/17 09:14:24;;;;;;;0.70;0.50;;;;;;;;;;5065951;28;20206;-33
2022/11/17 09:16:52;;;;;;;1.33;0.50;;;;;;;;;;5062325;28;20212;-29
2022/11/17 09:19:19;;;;;;;0.67;0.40;;;;;;;;;;5074441;28;20206;-32
2022/11/17 09:21:47;;;;;;;0.60;0.30;;;;;;;;;;5070115;28;20251;-32
2022/11/17 09:24:14;;;;;;;0.73;0.40;;;;;;;;;;5065566;28;20202;-32
2022/11/17 09:26:41;;;;;;;2.07;0.40;;;;;;;;;;5075824;28;20198;-32
2022/11/17 09:29:09;;;;;;;1.60;1.10;;;;;;;;;;5076206;28;20205;-31
2022/11/17 09:31:36;;;;;;;1.40;0.40;;;;;;;;;;5073858;28;20228;-30
2022/11/17 09:34:04;;;;;;;2.23;0.60;;;;;;;;;;5075753;28;20260;-30
2022/11/17 09:36:31;;;;;;;1.83;0.90;;;;;;;;;;5080767;28;20283;-31
2022/11/17 09:38:59;;;;;;;2.00;0.50;;;;;;;;;;5061078;28;20207;-32
2022/11/17 09:41:27;;;;;;;2.10;0.50;;;;;;;;;;5071964;28;20225;-34
2022/11/17 09:44:02;;;;;;;1.53;0.80;;;;;;;;;;5065019;28;20225;-31
2022/11/17 09:46:32;;;;;;;1.80;0.60;;;;;;;;;;5069783;28;20209;-33
2022/11/17 09:49:06;;;;;;;1.27;0.50;;;;;;;;;;5075611;28;20208;-33
2022/11/17 09:51:35;;;;;;;0.97;0.67;;;;;;;;;;5094437;28;20228;-32
2022/11/17 09:54:06;;;;;;;1.33;0.80;;;;;;;;;;5073831;28;20547;-30
2022/11/17 09:56:34;;;;;;;0.50;0.50;;;;;;;;;;5073628;28;20278;-30
2022/11/17 09:59:03;;;;;;;0.47;0.47;;;;;;;;;;5063760;28;20292;-32
2022/11/17 10:01:31;;;;;;;0.93;0.33;;;;;;;;;;5071096;28;20358;-33
2022/11/17 10:04:00;;;;;;;2.00;0.53;;;;;;;;;;5076620;28;20192;-34
2022/11/17 10:06:28;;;;;;;0.60;0.37;;;;;;;;;;5094036;28;20235;-34
2022/11/17 10:08:59;;;;;;;0.33;0.20;;;;;;;;;;5075027;28;20209;-33
2022/11/17 10:11:33;;;;;;;1.63;0.30;;;;;;;;;;5073528;28;20224;-34
2022/11/17 10:14:10;;;;;;;1.13;0.40;;;;;;;;;;5071141;28;20203;-34
2022/11/17 10:16:38;;;;;;;1.50;0.40;;;;;;;;;;5067238;28;20199;-31
2022/11/17 10:19:10;;;;;;;2.47;0.77;;;;;;;;;;5070401;28;20212;-32
2022/11/17 10:21:38;;;;;;;2.40;0.40;;;;;;;;;;5063815;28;20257;-33
2022/11/17 10:24:06;;;;;;;1.40;0.40;;;;;;;;;;5072988;28;20201;-30
2022/11/17 10:26:44;;;;;;;1.47;0.30;;;;;;;;;;5072897;28;20217;-33
2022/11/17 10:29:12;;;;;;;1.20;0.57;;;;;;;;;;5061518;28;20208;-32
2022/11/17 10:31:41;;;;;;;1.37;0.30;;;;;;;;;;5069204;28;20307;-30
2022/11/17 10:34:09;;;;;;;1.13;0.30;;;;;;;;;;5073511;28;20197;-33
2022/11/17 10:36:37;;;;;;;5.07;0.63;;;;;;;;;;5073427;28;20208;-30
2022/11/17 10:39:04;;;;;;;0.63;0.40;;;;;;;;;;5060833;28;20293;-30
2022/11/17 10:41:40;;;;;;;2.17;0.60;;;;;;;;;;5062725;28;20308;-33
2022/11/17 10:44:15;;;;;;;1.57;0.57;;;;;;;;;;5055987;28;20205;-33
2022/11/17 10:46:53;;;;;;;1.93;0.60;;;;;;;;;;5070240;28;20213;-32
2022/11/17 10:49:24;;;;;;;0.53;0.37;;;;;;;;;;5078682;28;20204;-32
2022/11/17 10:52:03;;;;;;;2.13;0.50;;;;;;;;;;5073029;28;20326;-33
2022/11/17 10:54:31;;;;;;;0.60;0.30;;;;;;;;;;5070244;28;20224;-32
2022/11/17 10:56:59;;;;;;;1.93;0.53;;;;;;;;;;5073888;28;20220;-30
2022/11/17 10:59:29;;;;;;;2.33;0.70;;;;;;;;;;5071018;28;20208;-30
2022/11/17 11:01:56;;;;;;;0.60;0.50;;;;;;;;;;5070421;28;20239;-33
2022/11/17 11:04:28;;;;;;;2.00;0.50;;;;;;;;;;5074081;28;20207;-33
2022/11/17 11:07:06;;;;;;;2.90;0.30;;;;;;;;;;5072601;28;20240;-33
2022/11/17 11:09:36;;;;;;;0.93;0.63;;;;;;;;;;5061291;28;20212;-31
2022/11/17 11:12:04;;;;;;;1.10;0.63;;;;;;;;;;5064681;28;20217;-35
2022/11/17 11:14:37;;;;;;;5.43;0.90;;;;;;;;;;5061901;28;20291;-33
2022/11/17 11:17:11;;;;;;;3.37;0.70;;;;;;;;;;5068393;28;20204;-33
2022/11/17 11:19:39;;;;;;;3.10;0.67;;;;;;;;;;5072517;28;20205;-31
2022/11/17 11:22:17;;;;;;;4.00;0.70;;;;;;;;;;5134639;22;20229;-35
2022/11/17 11:24:50;;;;;;;2.40;0.90;;;;;;;;;;5017860;28;20211;-33
2022/11/17 11:27:24;;;;;;;1.77;0.60;;;;;;;;;;5032226;28;20198;-34
2022/11/17 11:29:55;;;;;;;2.67;0.57;;;;;;;;;;5019270;28;20217;-34
2022/11/17 11:32:25;;;;;;;2.83;0.87;;;;;;;;;;5029139;28;20198;-34
2022/11/17 11:35:02;;;;;;;1.97;0.50;;;;;;;;;;5031088;28;20209;-33
2022/11/17 11:37:35;;;;;;;2.97;0.93;;;;;;;;;;5030810;28;20202;-34
2022/11/17 11:40:08;;;;;;;6.53;1.20;;;;;;;;;;5013707;28;20209;-32
2022/11/17 11:42:43;;;;;;;5.23;1.00;;;;;;;;;;5027223;28;20195;-33
2022/11/17 11:45:18;;;;;;;4.43;1.17;;;;;;;;;;5024211;28;20202;-33
2022/11/17 11:48:00;;;;;;;3.87;0.80;;;;;;;;;;5027374;28;20205;-33
2022/11/17 11:50:28;;;;;;;3.23;0.90;;;;;;;;;;5028222;28;20218;-33
2022/11/17 11:52:57;;;;;;;2.83;1.10;;;;;;;;;;5016214;28;20207;-37
2022/11/17 11:55:26;;;;;;;2.10;0.63;;;;;;;;;;5024527;28;20201;-31
2022/11/17 11:57:57;;;;;;;2.40;1.03;;;;;;;;;;5029395;28;20209;-37
2022/11/17 12:00:25;;;;;;;5.00;1.30;;;;;;;;;;5017840;28;20223;-34
2022/11/17 12:02:56;;;;;;;2.73;0.93;;;;;;;;;;5025886;28;20207;-35
2022/11/17 12:05:26;;;;;;;2.43;0.73;;;;;;;;;;5030718;28;20218;-31
2022/11/17 12:07:56;;;;;;;5.17;1.00;;;;;;;;;;5025810;28;20277;-32
2022/11/17 12:10:29;;;;;;;3.73;1.10;;;;;;;;;;5029066;28;20283;-34
2022/11/17 12:12:56;;;;;;;3.50;1.20;;;;;;;;;;5030276;28;20210;-31
2022/11/17 12:15:37;;;;;;;4.00;0.90;;;;;;;;;;5020936;28;20207;-35
2022/11/17 12:18:06;;;;;;;4.80;0.90;;;;;;;;;;5030087;28;20215;-35
2022/11/17 12:20:48;;;;;;;2.33;0.83;;;;;;;;;;5030719;28;20223;-33
2022/11/17 12:23:20;;;;;;;2.57;1.03;;;;;;;;;;5023676;28;20273;-36
2022/11/17 12:25:48;;;;;;;4.03;0.97;;;;;;;;;;5030446;28;20321;-32
2022/11/17 12:28:29;;;;;;;5.27;0.90;;;;;;;;;;5028661;28;20221;-32
2022/11/17 12:30:59;;;;;;;2.43;0.97;;;;;;;;;;5024659;28;20227;-34
2022/11/17 12:33:41;;;;;;;4.13;1.10;;;;;;;;;;5026693;28;20202;-32
2022/11/17 12:36:26;;;;;;;5.07;1.33;;;;;;;;;;5030547;28;20237;-33
2022/11/17 12:38:53;;;;;;;3.57;1.40;;;;;;;;;;5024698;28;20430;-36
2022/11/17 12:41:39;;;;;;;7.10;1.33;;;;;;;;;;5033104;28;20229;-34
2022/11/17 12:44:21;;;;;;;3.73;1.17;;;;;;;;;;5019183;28;20205;-29
2022/11/17 12:46:50;;;;;;;4.30;1.30;;;;;;;;;;5029999;28;20225;-35
2022/11/17 12:49:23;;;;;;;4.10;1.10;;;;;;;;;;5033585;28;20289;-38
2022/11/17 12:51:53;;;;;;;6.30;1.07;;;;;;;;;;5029168;28;20227;-33
2022/11/17 12:54:22;;;;;;;5.77;1.60;;;;;;;;;;5025095;28;20210;-34
2022/11/17 12:56:57;;;;;;;3.53;1.17;;;;;;;;;;5032948;28;20198;-34
2022/11/17 12:59:40;;;;;;;5.83;1.27;;;;;;;;;;5025346;28;20281;-33
2022/11/17 13:02:14;;;;;;;2.30;0.97;;;;;;;;;;5026001;28;20218;-34
2022/11/17 13:04:44;;;;;;;6.60;1.23;;;;;;;;;;5026700;28;20600;-33
2022/11/17 13:07:18;;;;;;;5.73;1.50;;;;;;;;;;5028467;28;20219;-37
2022/11/17 13:09:49;;;;;;;7.70;1.37;;;;;;;;;;5025994;28;20199;-31
2022/11/17 13:12:21;;;;;;;6.93;1.33;;;;;;;;;;5033224;28;20219;-34
2022/11/17 13:14:55;;;;;;;3.83;1.10;;;;;;;;;;5023928;28;20207;-33
2022/11/17 13:17:26;;;;;;;6.10;1.57;;;;;;;;;;5029880;28;20230;-33
2022/11/17 13:19:58;;;;;;;6.43;1.73;;;;;;;;;;5032987;28;20198;-33
2022/11/17 13:22:25;;;;;;;3.37;1.03;;;;;;;;;;5024329;28;20221;-35
2022/11/17 13:24:53;;;;;;;8.60;1.83;;;;;;;;;;5031125;28;20275;-33
2022/11/17 13:27:23;;;;;;;5.07;1.80;;;;;;;;;;5032477;28;20230;-31
2022/11/17 13:29:51;;;;;;;5.13;1.50;;;;;;;;;;5028294;28;20210;-32
2022/11/17 13:32:20;;;;;;;7.80;2.67;;;;;;;;;;5032354;28;20282;-32
2022/11/17 13:34:52;;;;;;;9.20;2.40;;;;;;;;;;5032270;28;20563;-32
2022/11/17 13:37:21;;;;;;;6.40;1.43;;;;;;;;;;5027380;28;20202;-32
2022/11/17 13:39:59;;;;;;;5.70;1.37;;;;;;;;;;5022422;28;20726;-34
2022/11/17 13:42:27;;;;;;;5.70;1.53;;;;;;;;;;5028231;28;20230;-34
2022/11/17 13:44:55;;;;;;;4.53;1.27;;;;;;;;;;5022244;28;20218;-35
2022/11/17 13:47:27;;;;;;;5.07;1.20;;;;;;;;;;5033214;28;20273;-35
2022/11/17 13:49:56;;;;;;;5.50;1.60;;;;;;;;;;5031705;28;20206;-32
2022/11/17 13:52:31;;;;;;;4.17;1.43;;;;;;;;;;5027485;28;20211;-33
2022/11/17 13:54:58;;;;;;;6.27;1.50;;;;;;;;;;5031455;28;20202;-34
2022/11/17 13:57:27;;;;;;;7.17;0.97;;;;;;;;;;5035172;28;20195;-32
2022/11/17 13:59:54;;;;;;;6.30;1.67;;;;;;;;;;5022602;28;20208;-35
2022/11/17 14:02:27;;;;;;;3.90;1.37;;;;;;;;;;5028919;28;20201;-35
2022/11/17 14:05:21;;;;;;;4.70;1.50;;;;;;;;;;5031537;28;20237;-34
2022/11/17 14:07:48;;;;;;;6.37;1.47;;;;;;;;;;5022414;28;20242;-32
2022/11/17 14:10:26;;;;;;;7.37;1.33;;;;;;;;;;5020429;28;20305;-36
2022/11/17 14:12:55;;;;;;;4.43;1.40;;;;;;;;;;5030670;28;20210;-35
2022/11/17 14:15:24;;;;;;;4.87;1.47;;;;;;;;;;5021075;28;20203;-32
2022/11/17 14:17:51;;;;;;;6.47;1.27;;;;;;;;;;5029737;28;20213;-33
2022/11/17 14:20:30;;;;;;;5.97;1.40;;;;;;;;;;5031828;28;20226;-33
2022/11/17 14:23:04;;;;;;;3.13;0.93;;;;;;;;;;5020449;28;20221;-37
2022/11/17 14:25:33;;;;;;;5.47;1.60;;;;;;;;;;5029763;28;20206;-34
2022/11/17 14:28:00;;;;;;;7.03;1.80;;;;;;;;;;5031394;28;20233;-33
2022/11/17 14:30:28;;;;;;;4.80;1.30;;;;;;;;;;5020779;28;20227;-36
2022/11/17 14:32:55;;;;;;;5.73;1.50;;;;;;;;;;5030883;28;20207;-31
2022/11/17 14:35:23;;;;;;;3.87;1.20;;;;;;;;;;5030447;28;20202;-38
2022/11/17 14:37:50;;;;;;;5.63;1.13;;;;;;;;;;5019902;28;20207;-34
2022/11/17 14:40:18;;;;;;;7.57;1.70;;;;;;;;;;5020784;28;20224;-35
2022/11/17 14:42:45;;;;;;;6.27;1.23;;;;;;;;;;5028723;28;20205;-34
2022/11/17 14:45:13;;;;;;;6.93;1.67;;;;;;;;;;5019383;28;20210;-31
2022/11/17 14:47:40;;;;;;;6.37;1.67;;;;;;;;;;5028018;28;20223;-31
2022/11/17 14:50:08;;;;;;;6.23;1.07;;;;;;;;;;5030006;28;20230;-31
2022/11/17 14:52:38;;;;;;;6.53;1.40;;;;;;;;;;5014375;28;23271;-35
2022/11/17 14:55:06;;;;;;;5.47;1.77;;;;;;;;;;5023490;28;20206;-31
2022/11/17 14:57:34;;;;;;;3.57;1.30;;;;;;;;;;5030923;28;20199;-34
2022/11/17 15:00:01;;;;;;;5.57;1.40;;;;;;;;;;5020943;28;20272;-32
2022/11/17 15:02:28;;;;;;;7.33;1.97;;;;;;;;;;5029875;28;20206;-32
2022/11/17 15:04:57;;;;;;;7.57;1.67;;;;;;;;;;5030658;28;20202;-34
2022/11/17 15:07:24;;;;;;;6.03;1.57;;;;;;;;;;5029046;28;20226;-32
2022/11/17 15:09:52;;;;;;;4.90;1.57;;;;;;;;;;5024218;28;20220;-36
2022/11/17 15:12:20;;;;;;;6.60;1.47;;;;;;;;;;5030594;28;20205;-33
2022/11/17 15:14:47;;;;;;;5.13;1.20;;;;;;;;;;5022089;28;20204;-34
2022/11/17 15:17:14;;;;;;;4.53;0.90;;;;;;;;;;5030638;28;20190;-32
2022/11/17 15:19:41;;;;;;;6.17;1.50;;;;;;;;;;5030392;28;20210;-33
2022/11/17 15:22:09;;;;;;;5.47;1.50;;;;;;;;;;5030405;28;20244;-32